• Join FlightAware (Why Join?)
  • Login
  • US Flag 
07:37AM EDT


 

Airport Tracker/Info


-or-


 

Live Flight TrackerFlight Track Log ✈ N523JM ✈ 15-Oct-2013 ✈ KOSU - KPBI

Flight Track Log - Related Links

Times and Time Zones

All times are in EDT time to prevent confusion due to time zone crossing. See the N523JM flight status page for this flight to view local times or setup timezone preferences in your user account.

Time Position Orientation Groundspeed Altitude Reporting Facility
EDT Latitude Longitude Course Direction KTS MPH feet Rate Location/Type
09:08AM 40.0758 -83.0858 271° West 163 188 1,300  Level Indianapolis Center
09:09AM 40.0772 -83.1572 271° West 232 267 4,200 3,660 Climbing Indianapolis Center
09:10AM 40.0703 -83.2517 265° West 261 300 8,400 3,000 Climbing Indianapolis Center
09:11AM 40.0161 -83.2617 188° South 272 313 10,100 1,380 Climbing Indianapolis Center
09:12AM 39.9294 -83.2378 168° South 314 361 11,200 1,620 Climbing Indianapolis Center
09:13AM 39.8453 -83.2142 168° South 308 354 13,500 2,460 Climbing Indianapolis Center
09:14AM 39.7522 -83.1889 168° South 335 386 16,300 2,820 Climbing Indianapolis Center
09:15AM 39.6383 -83.1561 168° South 345 397 19,300 2,520 Climbing Indianapolis Center
09:16AM 39.5406 -83.1283 168° South 356 410 21,600 2,040 Climbing Indianapolis Center
09:18AM 39.4406 -83.0992 167° South 365 420 23,600 1,860 Climbing Indianapolis Center
09:19AM 39.3397 -83.0717 168° South 369 425 25,500 1,620 Climbing Indianapolis Center
09:20AM 39.2361 -83.0428 168° South 380 437 27,000 1,500 Climbing Indianapolis Center
09:21AM 39.1189 -83.0078 167° South 386 444 28,700 1,500 Climbing Indianapolis Center
09:22AM 39.0094 -82.9772 168° South 398 458 30,100 1,200 Climbing Indianapolis Center
09:23AM 38.8972 -82.9478 168° South 407 468 31,200 1,020 Climbing Indianapolis Center
09:24AM 38.7806 -82.9147 168° South 426 490 32,200 960 Climbing Indianapolis Center
09:25AM 38.6631 -82.8817 168° South 433 498 33,200 1,020 Climbing Indianapolis Center
09:26AM 38.5339 -82.8464 168° South 439 505 34,400 1,020 Climbing Indianapolis Center
09:27AM 38.4133 -82.8125 168° South 442 509 35,400 960 Climbing Indianapolis Center
09:28AM 38.2775 -82.7564 162° South 439 505 36,500 720 Climbing Indianapolis Center
09:29AM 38.1581 -82.7050 161° South 450 518 37,000 240 Climbing Indianapolis Center
09:30AM 38.0325 -82.6739 169° South 452 520 37,000  Level Indianapolis Center
09:31AM 37.9003 -82.6397 168° South 475 547 37,000  Level Indianapolis Center
09:32AM 37.7644 -82.6050 169° South 492 566 37,000  Level Indianapolis Center
09:33AM 37.6250 -82.5692 168° South 504 580 37,000  Level Indianapolis Center
09:34AM 37.4606 -82.5264 168° South 512 589 37,000  Level Indianapolis Center
09:35AM 37.3189 -82.4906 169° South 514 592 37,000  Level Indianapolis Center
09:36AM 37.1769 -82.4533 168° South 516 594 37,000  Level Indianapolis Center
09:37AM 37.0342 -82.4169 168° South 516 594 37,000  Level Indianapolis Center
09:38AM 36.8883 -82.3811 169° South 523 602 37,000  Level Indianapolis Center
09:39AM 36.7428 -82.3447 169° South 526 605 37,000  Level Indianapolis Center
09:40AM 36.5981 -82.3081 169° South 526 605 37,000  Level Indianapolis Center
09:41AM 36.4900 -82.2828 169° South 529 609 37,000  Level Atlanta Center
09:42AM 36.3475 -82.2472 169° South 529 609 37,000  Level Atlanta Center
09:43AM 36.2075 -82.2144 169° South 518 596 37,000  Level Atlanta Center
09:44AM 36.0608 -82.1764 168° South 518 596 37,000  Level Atlanta Center
09:45AM 35.9164 -82.1439 170° South 528 608 37,000  Level Atlanta Center
09:46AM 35.7928 -82.1136 169° South 523 602 37,000  Level Atlanta Center
09:47AM 35.6464 -82.0786 169° South 523 602 37,000  Level Atlanta Center
09:48AM 35.5017 -82.0464 170° South 528 608 37,000  Level Atlanta Center
09:49AM 35.3614 -82.0117 169° South 518 596 37,000  Level Atlanta Center
09:50AM 35.2147 -81.9769 169° South 528 608 37,000  Level Atlanta Center
09:51AM 35.0744 -81.9425 169° South 528 608 37,000  Level Atlanta Center
09:52AM 34.9322 -81.9208 173° South 523 602 37,000  Level Atlanta Center
09:53AM 34.7858 -81.9067 175° South 528 608 37,000  Level Atlanta Center
09:54AM 34.6292 -81.8906 175° South 520 598 37,000  Level Atlanta Center
09:56AM 34.3433 -81.8639 176° South 540 621 37,000  Level Jacksonville Center
09:57AM 34.1994 -81.8506 176° South 535 616 37,000  Level Jacksonville Center
09:58AM 34.0553 -81.8372 176° South 535 616 37,000  Level Jacksonville Center
09:59AM 33.9069 -81.8217 175° South 535 616 37,000  Level Jacksonville Center
10:00AM 33.7650 -81.8108 176° South 530 610 37,000  Level Jacksonville Center
10:01AM 33.6167 -81.7928 174° South 530 610 37,000 180 Level Jacksonville Center
10:02AM 33.4725 -81.7672 172° South 535 616 37,400 480 Climbing Jacksonville Center
10:03AM 33.3303 -81.7442 172° South 529 609 38,000 300 Climbing Jacksonville Center
10:04AM 33.1903 -81.7211 172° South 522 601 38,000  Level Jacksonville Center
10:05AM 33.0461 -81.6981 172° South 517 595 38,000  Level Jacksonville Center
10:06AM 32.9164 -81.6800 173° South 522 601 38,000  Level Jacksonville Center
10:07AM 32.7742 -81.6572 172° South 522 601 38,000  Level Jacksonville Center
10:08AM 32.6322 -81.6344 172° South 516 594 38,000  Level Jacksonville Center
10:09AM 32.4731 -81.6097 173° South 526 605 38,000  Level Jacksonville Center
10:10AM 32.3269 -81.5872 173° South 526 605 38,000  Level Jacksonville Center
10:11AM 32.1950 -81.5669 173° South 526 605 38,000  Level Jacksonville Center
10:12AM 32.0361 -81.5397 172° South 531 611 38,000  Level Jacksonville Center
10:13AM 31.9044 -81.5172 172° South 531 611 38,000  Level Jacksonville Center
10:14AM 31.7453 -81.4928 173° South 531 611 38,000  Level Jacksonville Center
10:15AM 31.5969 -81.4656 171° South 536 617 38,000  Level Jacksonville Center
10:16AM 31.4672 -81.4458 173° South 536 617 38,000  Level Jacksonville Center
10:17AM 31.3061 -81.4239 173° South 531 611 38,000  Level Jacksonville Center
10:18AM 31.1597 -81.3994 172° South 531 611 38,000  Level Jacksonville Center
10:19AM 31.0111 -81.3753 172° South 536 617 38,000  Level Jacksonville Center
10:20AM 30.8689 -81.3533 172° South 536 617 38,000  Level Jacksonville Center
10:21AM 30.7225 -81.3292 172° South 536 617 38,000  Level Jacksonville Center
10:22AM 30.5739 -81.3075 173° South 541 623 38,000  Level Jacksonville Center
10:23AM 30.4444 -81.2878 173° South 541 623 38,000  Level Jacksonville Center
10:24AM 30.2958 -81.2639 172° South 541 623 38,000  Level Jacksonville Center
10:25AM 30.1494 -81.2422 173° South 541 623 38,000  Level Jacksonville Center
10:26AM 30.0031 -81.2208 173° South 541 623 38,000  Level Jacksonville Center
10:27AM 29.8564 -81.1994 173° South 541 623 38,000  Level Jacksonville Center
10:28AM 29.7122 -81.1756 172° South 536 617 38,000  Level Jacksonville Center
10:29AM 29.5658 -81.1567 174° South 536 617 38,000 -300 Level Jacksonville Center
10:30AM 29.4067 -81.1286 171° South 536 617 37,400 -900 Descending Jacksonville Center
10:31AM 29.2642 -81.0836 165° South 532 612 36,300 -420 Descending Jacksonville Center
10:33AM 28.9869 -80.8850 148° Southeast 513 590 36,000 -120 Descending Miami Center
10:34AM 28.8542 -80.7878 147° Southeast 525 604 36,000 -540 Level Miami Center
10:35AM 28.7311 -80.7006 148° Southeast 525 604 35,000 -1,260 Descending Miami Center
10:36AM 28.6106 -80.6114 147° Southeast 533 613 33,500 -1,620 Descending Miami Center
10:37AM 28.5061 -80.5369 148° Southeast 510 587 31,800 -2,280 Descending Miami Center
10:38AM 28.3914 -80.4553 148° Southeast 491 565 29,000 -3,180 Descending Miami Center
10:39AM 28.2658 -80.3831 153° Southeast 467 537 25,500 -3,000 Descending Miami Center
10:40AM 28.1475 -80.3533 168° South 453 521 23,000 -2,460 Descending Miami Center
10:41AM 28.0314 -80.3239 167° South 442 509 20,600 -2,160 Descending Miami Center
10:42AM 27.9317 -80.2975 167° South 422 486 18,800 -1,920 Descending Miami Center
10:43AM 27.8281 -80.2686 166° South 399 459 16,800 -2,100 Descending Miami Center
10:44AM 27.7181 -80.2417 168° South 375 432 14,600 -1,920 Descending Miami Center
10:45AM 27.6200 -80.2389 179° South 364 419 13,000 -1,740 Descending Miami Center
10:46AM 27.5264 -80.2267 173° South 353 406 11,100 -1,500 Descending Miami Center
10:47AM 27.4497 -80.1964 161° South 330 380 10,100 -540 Descending Miami Center
10:48AM 27.3714 -80.1592 157° South 315 362 10,100 -60 Level Miami Center
10:49AM 27.2844 -80.1261 161° South 303 349 10,000 -60 Descending Miami Center
10:50AM 27.2011 -80.1214 177° South 303 349 10,000  Level Miami Center
10:51AM 27.1156 -80.1144 176° South 309 356 10,000 -720 Level Miami Center
10:52AM 27.0425 -80.1053 174° South 304 350 8,600 -1,500 Descending Miami Center
10:53AM 26.9575 -80.0819 166° South 295 339 7,000 -1,800 Descending Miami Center
10:54AM 26.8850 -80.0614 166° South 287 330 5,100 -1,920 Descending Miami Center
10:57AM 26.7105 -80.0921 170° South  Level FlightAware Approximate
11:04AM 26.6832 -80.0956 170° South  Level Estimated
11:05AM 26.6832 -80.0956 170° South  Level Estimated
11:06AM 26.6832 -80.0956 170° South  Level Estimated
11:07AM 26.6832 -80.0956 170° South  Level Estimated
11:08AM 26.6832 -80.0956 170° South  Level Estimated
11:09AM 26.6832 -80.0956 170° South  Level Estimated
11:10AM 26.6832 -80.0956 170° South  Level Estimated